sensor_id;sensor_type;location;lat;lon;timestamp;P1;durP1;ratioP1;P2;durP2;ratioP2
11255;SDS011;5685;52.384;13.420;2023-06-05T00:02:28;75.27;;;41.33;;
11255;SDS011;5685;52.384;13.420;2023-06-05T00:05:32;74.70;;;41.20;;
11255;SDS011;5685;52.384;13.420;2023-06-05T00:08:34;75.10;;;41.27;;
11255;SDS011;5685;52.384;13.420;2023-06-05T00:11:37;74.87;;;41.17;;
11255;SDS011;5685;52.384;13.420;2023-06-05T00:14:39;75.20;;;41.17;;
11255;SDS011;5685;52.384;13.420;2023-06-05T00:17:41;75.27;;;41.23;;
11255;SDS011;5685;52.384;13.420;2023-06-05T00:20:47;74.97;;;41.07;;
11255;SDS011;5685;52.384;13.420;2023-06-05T00:23:49;75.50;;;41.30;;
11255;SDS011;5685;52.384;13.420;2023-06-05T00:26:51;75.03;;;41.00;;
11255;SDS011;5685;52.384;13.420;2023-06-05T00:29:54;74.80;;;40.87;;
11255;SDS011;5685;52.384;13.420;2023-06-05T00:32:56;75.10;;;41.07;;
11255;SDS011;5685;52.384;13.420;2023-06-05T00:36:00;74.80;;;40.93;;
11255;SDS011;5685;52.384;13.420;2023-06-05T00:39:02;75.07;;;41.10;;
11255;SDS011;5685;52.384;13.420;2023-06-05T00:42:05;74.97;;;41.00;;
11255;SDS011;5685;52.384;13.420;2023-06-05T00:45:08;75.17;;;41.10;;
11255;SDS011;5685;52.384;13.420;2023-06-05T00:48:10;74.60;;;40.80;;
11255;SDS011;5685;52.384;13.420;2023-06-05T00:51:14;74.60;;;40.83;;
11255;SDS011;5685;52.384;13.420;2023-06-05T00:54:16;75.00;;;41.07;;
11255;SDS011;5685;52.384;13.420;2023-06-05T00:57:21;74.50;;;40.80;;
11255;SDS011;5685;52.384;13.420;2023-06-05T01:00:24;74.63;;;40.90;;
11255;SDS011;5685;52.384;13.420;2023-06-05T01:03:27;74.80;;;41.00;;
11255;SDS011;5685;52.384;13.420;2023-06-05T01:06:35;74.90;;;41.00;;
11255;SDS011;5685;52.384;13.420;2023-06-05T01:09:40;74.90;;;41.10;;
11255;SDS011;5685;52.384;13.420;2023-06-05T01:12:46;74.83;;;41.13;;
11255;SDS011;5685;52.384;13.420;2023-06-05T01:15:48;74.47;;;41.00;;
11255;SDS011;5685;52.384;13.420;2023-06-05T01:18:52;74.80;;;41.10;;
11255;SDS011;5685;52.384;13.420;2023-06-05T01:21:57;73.63;;;40.60;;
11255;SDS011;5685;52.384;13.420;2023-06-05T01:25:01;74.53;;;41.00;;
11255;SDS011;5685;52.384;13.420;2023-06-05T01:28:05;74.60;;;41.00;;
11255;SDS011;5685;52.384;13.420;2023-06-05T01:31:09;74.40;;;40.80;;
11255;SDS011;5685;52.384;13.420;2023-06-05T01:34:13;75.00;;;41.30;;
11255;SDS011;5685;52.384;13.420;2023-06-05T01:37:19;74.97;;;41.20;;
11255;SDS011;5685;52.384;13.420;2023-06-05T01:40:26;74.97;;;41.30;;
11255;SDS011;5685;52.384;13.420;2023-06-05T01:43:29;74.70;;;41.20;;
11255;SDS011;5685;52.384;13.420;2023-06-05T01:46:32;74.50;;;40.90;;
11255;SDS011;5685;52.384;13.420;2023-06-05T01:49:35;74.80;;;41.10;;
11255;SDS011;5685;52.384;13.420;2023-06-05T01:52:38;74.40;;;40.90;;
11255;SDS011;5685;52.384;13.420;2023-06-05T01:55:42;74.77;;;41.00;;
11255;SDS011;5685;52.384;13.420;2023-06-05T01:58:46;74.60;;;41.07;;
11255;SDS011;5685;52.384;13.420;2023-06-05T02:01:49;74.13;;;40.80;;
11255;SDS011;5685;52.384;13.420;2023-06-05T02:04:51;74.40;;;40.90;;
11255;SDS011;5685;52.384;13.420;2023-06-05T02:07:54;74.40;;;40.70;;
11255;SDS011;5685;52.384;13.420;2023-06-05T02:10:59;74.87;;;41.00;;
11255;SDS011;5685;52.384;13.420;2023-06-05T02:14:02;74.73;;;41.03;;
11255;SDS011;5685;52.384;13.420;2023-06-05T02:17:04;74.90;;;41.10;;
11255;SDS011;5685;52.384;13.420;2023-06-05T02:20:07;74.37;;;40.90;;
11255;SDS011;5685;52.384;13.420;2023-06-05T02:23:12;74.67;;;40.93;;
11255;SDS011;5685;52.384;13.420;2023-06-05T02:26:17;74.97;;;41.00;;
11255;SDS011;5685;52.384;13.420;2023-06-05T02:29:20;74.83;;;41.00;;
11255;SDS011;5685;52.384;13.420;2023-06-05T02:32:22;74.57;;;40.93;;
11255;SDS011;5685;52.384;13.420;2023-06-05T02:35:26;74.83;;;41.10;;
11255;SDS011;5685;52.384;13.420;2023-06-05T02:38:29;74.83;;;40.97;;
11255;SDS011;5685;52.384;13.420;2023-06-05T02:41:33;74.67;;;41.00;;
11255;SDS011;5685;52.384;13.420;2023-06-05T02:44:35;74.80;;;41.00;;
11255;SDS011;5685;52.384;13.420;2023-06-05T02:47:37;74.60;;;40.90;;
11255;SDS011;5685;52.384;13.420;2023-06-05T02:50:40;74.47;;;40.83;;
11255;SDS011;5685;52.384;13.420;2023-06-05T02:53:42;74.20;;;40.80;;
11255;SDS011;5685;52.384;13.420;2023-06-05T02:56:46;73.20;;;40.70;;
11255;SDS011;5685;52.384;13.420;2023-06-05T02:59:49;73.80;;;40.97;;
11255;SDS011;5685;52.384;13.420;2023-06-05T03:02:52;73.70;;;40.80;;
11255;SDS011;5685;52.384;13.420;2023-06-05T03:05:56;73.73;;;40.80;;
11255;SDS011;5685;52.384;13.420;2023-06-05T03:09:04;73.87;;;40.90;;
11255;SDS011;5685;52.384;13.420;2023-06-05T03:12:09;73.70;;;40.87;;
11255;SDS011;5685;52.384;13.420;2023-06-05T03:15:11;73.87;;;40.90;;
11255;SDS011;5685;52.384;13.420;2023-06-05T03:18:15;73.93;;;40.90;;
11255;SDS011;5685;52.384;13.420;2023-06-05T03:21:17;74.73;;;41.10;;
11255;SDS011;5685;52.384;13.420;2023-06-05T03:24:19;74.33;;;40.93;;
11255;SDS011;5685;52.384;13.420;2023-06-05T03:27:26;74.33;;;40.80;;
11255;SDS011;5685;52.384;13.420;2023-06-05T03:30:28;74.17;;;40.90;;
11255;SDS011;5685;52.384;13.420;2023-06-05T03:33:30;74.90;;;41.03;;
11255;SDS011;5685;52.384;13.420;2023-06-05T03:36:33;74.23;;;40.73;;
11255;SDS011;5685;52.384;13.420;2023-06-05T03:39:37;74.83;;;41.10;;
11255;SDS011;5685;52.384;13.420;2023-06-05T03:42:41;74.90;;;41.00;;
11255;SDS011;5685;52.384;13.420;2023-06-05T03:45:43;74.73;;;40.90;;
11255;SDS011;5685;52.384;13.420;2023-06-05T03:48:47;74.43;;;40.83;;
11255;SDS011;5685;52.384;13.420;2023-06-05T03:51:50;74.67;;;40.87;;
11255;SDS011;5685;52.384;13.420;2023-06-05T03:54:52;74.33;;;40.90;;
11255;SDS011;5685;52.384;13.420;2023-06-05T03:57:57;75.03;;;41.17;;
11255;SDS011;5685;52.384;13.420;2023-06-05T04:01:00;74.30;;;40.87;;
11255;SDS011;5685;52.384;13.420;2023-06-05T04:04:03;74.40;;;40.77;;
11255;SDS011;5685;52.384;13.420;2023-06-05T04:07:06;74.40;;;40.97;;
11255;SDS011;5685;52.384;13.420;2023-06-05T04:10:09;74.30;;;40.70;;
11255;SDS011;5685;52.384;13.420;2023-06-05T04:13:13;74.13;;;40.80;;
11255;SDS011;5685;52.384;13.420;2023-06-05T04:16:15;74.70;;;41.00;;
11255;SDS011;5685;52.384;13.420;2023-06-05T04:19:17;74.00;;;40.70;;
11255;SDS011;5685;52.384;13.420;2023-06-05T04:22:20;74.57;;;40.90;;
11255;SDS011;5685;52.384;13.420;2023-06-05T04:25:22;74.70;;;40.93;;
11255;SDS011;5685;52.384;13.420;2023-06-05T04:28:30;74.50;;;40.80;;
11255;SDS011;5685;52.384;13.420;2023-06-05T04:31:34;74.33;;;40.73;;
11255;SDS011;5685;52.384;13.420;2023-06-05T04:34:40;74.50;;;40.80;;
11255;SDS011;5685;52.384;13.420;2023-06-05T04:37:43;73.80;;;40.53;;
11255;SDS011;5685;52.384;13.420;2023-06-05T04:40:45;74.40;;;40.73;;
11255;SDS011;5685;52.384;13.420;2023-06-05T04:43:49;73.90;;;40.77;;
11255;SDS011;5685;52.384;13.420;2023-06-05T04:46:52;74.60;;;40.90;;
11255;SDS011;5685;52.384;13.420;2023-06-05T04:49:57;74.87;;;41.03;;
11255;SDS011;5685;52.384;13.420;2023-06-05T04:52:59;74.70;;;40.97;;
11255;SDS011;5685;52.384;13.420;2023-06-05T04:56:02;74.00;;;40.50;;
11255;SDS011;5685;52.384;13.420;2023-06-05T04:59:05;74.30;;;40.73;;
11255;SDS011;5685;52.384;13.420;2023-06-05T05:02:09;74.43;;;40.87;;
11255;SDS011;5685;52.384;13.420;2023-06-05T05:05:11;74.13;;;40.60;;
11255;SDS011;5685;52.384;13.420;2023-06-05T05:08:15;74.23;;;40.80;;
11255;SDS011;5685;52.384;13.420;2023-06-05T05:11:17;74.57;;;40.87;;
11255;SDS011;5685;52.384;13.420;2023-06-05T05:14:23;74.03;;;40.53;;
11255;SDS011;5685;52.384;13.420;2023-06-05T05:17:26;74.57;;;40.90;;
11255;SDS011;5685;52.384;13.420;2023-06-05T05:20:28;74.70;;;40.80;;
11255;SDS011;5685;52.384;13.420;2023-06-05T05:23:32;75.00;;;41.03;;
11255;SDS011;5685;52.384;13.420;2023-06-05T05:26:34;74.53;;;40.70;;
11255;SDS011;5685;52.384;13.420;2023-06-05T05:29:41;74.83;;;40.97;;
11255;SDS011;5685;52.384;13.420;2023-06-05T05:32:43;74.20;;;40.57;;
11255;SDS011;5685;52.384;13.420;2023-06-05T05:35:45;74.80;;;41.00;;
11255;SDS011;5685;52.384;13.420;2023-06-05T05:38:48;75.27;;;41.10;;
11255;SDS011;5685;52.384;13.420;2023-06-05T05:41:50;74.53;;;40.80;;
11255;SDS011;5685;52.384;13.420;2023-06-05T05:44:54;74.70;;;40.80;;
11255;SDS011;5685;52.384;13.420;2023-06-05T05:47:56;74.77;;;41.00;;
11255;SDS011;5685;52.384;13.420;2023-06-05T05:50:59;74.43;;;40.80;;
11255;SDS011;5685;52.384;13.420;2023-06-05T05:54:01;74.83;;;40.93;;
11255;SDS011;5685;52.384;13.420;2023-06-05T05:57:03;74.40;;;40.77;;
11255;SDS011;5685;52.384;13.420;2023-06-05T06:00:09;75.10;;;41.27;;
11255;SDS011;5685;52.384;13.420;2023-06-05T06:03:12;74.70;;;40.80;;
11255;SDS011;5685;52.384;13.420;2023-06-05T06:06:14;74.73;;;41.00;;
11255;SDS011;5685;52.384;13.420;2023-06-05T06:09:17;74.77;;;41.00;;
11255;SDS011;5685;52.384;13.420;2023-06-05T06:12:19;74.77;;;40.90;;
11255;SDS011;5685;52.384;13.420;2023-06-05T06:15:23;74.77;;;41.00;;
11255;SDS011;5685;52.384;13.420;2023-06-05T06:18:27;74.20;;;40.67;;
11255;SDS011;5685;52.384;13.420;2023-06-05T06:21:29;74.60;;;40.80;;
11255;SDS011;5685;52.384;13.420;2023-06-05T06:24:33;74.40;;;40.70;;
11255;SDS011;5685;52.384;13.420;2023-06-05T06:27:35;74.00;;;40.57;;
11255;SDS011;5685;52.384;13.420;2023-06-05T06:30:39;74.23;;;40.60;;
11255;SDS011;5685;52.384;13.420;2023-06-05T06:33:42;74.97;;;41.03;;
11255;SDS011;5685;52.384;13.420;2023-06-05T06:36:45;74.63;;;40.80;;
11255;SDS011;5685;52.384;13.420;2023-06-05T06:39:47;75.00;;;41.20;;
11255;SDS011;5685;52.384;13.420;2023-06-05T06:42:50;74.60;;;40.80;;
11255;SDS011;5685;52.384;13.420;2023-06-05T06:45:53;74.43;;;40.80;;
11255;SDS011;5685;52.384;13.420;2023-06-05T06:48:56;74.50;;;40.80;;
11255;SDS011;5685;52.384;13.420;2023-06-05T06:51:58;74.97;;;40.90;;
11255;SDS011;5685;52.384;13.420;2023-06-05T06:55:00;75.00;;;40.93;;
11255;SDS011;5685;52.384;13.420;2023-06-05T06:58:03;74.50;;;41.00;;
11255;SDS011;5685;52.384;13.420;2023-06-05T07:01:07;74.67;;;40.80;;
11255;SDS011;5685;52.384;13.420;2023-06-05T07:04:11;74.43;;;40.70;;
11255;SDS011;5685;52.384;13.420;2023-06-05T07:07:17;74.83;;;40.90;;
11255;SDS011;5685;52.384;13.420;2023-06-05T07:10:21;74.63;;;40.80;;
11255;SDS011;5685;52.384;13.420;2023-06-05T07:13:23;74.53;;;40.97;;
11255;SDS011;5685;52.384;13.420;2023-06-05T07:16:27;74.50;;;40.80;;
11255;SDS011;5685;52.384;13.420;2023-06-05T07:19:30;74.53;;;40.90;;
11255;SDS011;5685;52.384;13.420;2023-06-05T07:22:32;74.77;;;41.07;;
11255;SDS011;5685;52.384;13.420;2023-06-05T07:25:35;74.90;;;40.83;;
11255;SDS011;5685;52.384;13.420;2023-06-05T07:28:38;74.33;;;40.67;;
11255;SDS011;5685;52.384;13.420;2023-06-05T07:31:42;74.50;;;40.73;;
11255;SDS011;5685;52.384;13.420;2023-06-05T07:34:44;73.90;;;40.60;;
11255;SDS011;5685;52.384;13.420;2023-06-05T07:37:46;74.17;;;40.83;;
11255;SDS011;5685;52.384;13.420;2023-06-05T07:40:49;74.47;;;40.97;;
11255;SDS011;5685;52.384;13.420;2023-06-05T07:43:51;74.50;;;40.93;;
11255;SDS011;5685;52.384;13.420;2023-06-05T07:46:55;74.53;;;40.80;;
11255;SDS011;5685;52.384;13.420;2023-06-05T07:49:57;74.87;;;41.00;;
11255;SDS011;5685;52.384;13.420;2023-06-05T07:53:00;74.57;;;40.80;;
11255;SDS011;5685;52.384;13.420;2023-06-05T07:56:02;75.13;;;41.20;;
11255;SDS011;5685;52.384;13.420;2023-06-05T07:59:05;75.27;;;41.20;;
11255;SDS011;5685;52.384;13.420;2023-06-05T08:02:09;74.20;;;40.83;;
11255;SDS011;5685;52.384;13.420;2023-06-05T08:05:11;74.80;;;41.00;;
11255;SDS011;5685;52.384;13.420;2023-06-05T08:08:14;74.20;;;40.70;;
11255;SDS011;5685;52.384;13.420;2023-06-05T08:11:17;74.67;;;41.00;;
11255;SDS011;5685;52.384;13.420;2023-06-05T08:14:20;74.37;;;40.73;;
11255;SDS011;5685;52.384;13.420;2023-06-05T08:17:24;74.60;;;40.80;;
11255;SDS011;5685;52.384;13.420;2023-06-05T08:20:26;74.80;;;40.83;;
11255;SDS011;5685;52.384;13.420;2023-06-05T08:23:28;74.57;;;40.67;;
11255;SDS011;5685;52.384;13.420;2023-06-05T08:26:30;74.60;;;40.63;;
11255;SDS011;5685;52.384;13.420;2023-06-05T08:29:33;75.10;;;40.80;;
11255;SDS011;5685;52.384;13.420;2023-06-05T08:32:37;74.67;;;40.80;;
11255;SDS011;5685;52.384;13.420;2023-06-05T08:35:40;74.53;;;40.60;;
11255;SDS011;5685;52.384;13.420;2023-06-05T08:38:43;74.40;;;40.60;;
11255;SDS011;5685;52.384;13.420;2023-06-05T08:41:46;74.00;;;40.30;;
11255;SDS011;5685;52.384;13.420;2023-06-05T08:44:51;74.70;;;40.70;;
11255;SDS011;5685;52.384;13.420;2023-06-05T08:47:55;74.33;;;40.50;;
11255;SDS011;5685;52.384;13.420;2023-06-05T08:50:59;74.33;;;40.50;;
11255;SDS011;5685;52.384;13.420;2023-06-05T08:54:02;74.60;;;40.50;;
11255;SDS011;5685;52.384;13.420;2023-06-05T08:57:07;74.70;;;40.60;;
11255;SDS011;5685;52.384;13.420;2023-06-05T09:00:11;74.57;;;40.60;;
11255;SDS011;5685;52.384;13.420;2023-06-05T09:03:16;74.50;;;40.63;;
11255;SDS011;5685;52.384;13.420;2023-06-05T09:06:20;74.20;;;40.60;;
11255;SDS011;5685;52.384;13.420;2023-06-05T09:09:22;74.30;;;40.70;;
11255;SDS011;5685;52.384;13.420;2023-06-05T09:12:25;74.77;;;40.70;;
11255;SDS011;5685;52.384;13.420;2023-06-05T09:15:28;74.50;;;40.60;;
11255;SDS011;5685;52.384;13.420;2023-06-05T09:18:32;74.87;;;40.60;;
11255;SDS011;5685;52.384;13.420;2023-06-05T09:21:37;74.43;;;40.60;;
11255;SDS011;5685;52.384;13.420;2023-06-05T09:24:40;74.40;;;40.50;;
11255;SDS011;5685;52.384;13.420;2023-06-05T09:27:43;74.47;;;40.57;;
11255;SDS011;5685;52.384;13.420;2023-06-05T09:30:55;74.63;;;40.70;;
11255;SDS011;5685;52.384;13.420;2023-06-05T09:33:59;74.00;;;40.40;;
11255;SDS011;5685;52.384;13.420;2023-06-05T09:37:02;74.50;;;40.40;;
11255;SDS011;5685;52.384;13.420;2023-06-05T09:40:05;74.70;;;40.70;;
11255;SDS011;5685;52.384;13.420;2023-06-05T09:43:13;74.53;;;40.60;;
11255;SDS011;5685;52.384;13.420;2023-06-05T09:46:16;74.83;;;40.80;;
11255;SDS011;5685;52.384;13.420;2023-06-05T09:49:20;74.53;;;40.57;;
11255;SDS011;5685;52.384;13.420;2023-06-05T09:52:22;74.33;;;40.60;;
11255;SDS011;5685;52.384;13.420;2023-06-05T09:55:25;74.17;;;40.50;;
11255;SDS011;5685;52.384;13.420;2023-06-05T09:58:28;74.10;;;40.57;;
11255;SDS011;5685;52.384;13.420;2023-06-05T10:01:30;74.10;;;40.63;;
11255;SDS011;5685;52.384;13.420;2023-06-05T10:04:37;74.90;;;40.97;;
11255;SDS011;5685;52.384;13.420;2023-06-05T10:07:41;74.77;;;40.77;;
11255;SDS011;5685;52.384;13.420;2023-06-05T10:10:44;74.40;;;40.73;;
11255;SDS011;5685;52.384;13.420;2023-06-05T10:13:47;74.60;;;40.80;;
11255;SDS011;5685;52.384;13.420;2023-06-05T10:16:50;74.37;;;40.80;;
11255;SDS011;5685;52.384;13.420;2023-06-05T10:19:54;74.73;;;41.00;;
11255;SDS011;5685;52.384;13.420;2023-06-05T10:22:57;74.53;;;40.70;;
11255;SDS011;5685;52.384;13.420;2023-06-05T10:26:00;74.70;;;40.80;;
11255;SDS011;5685;52.384;13.420;2023-06-05T10:29:07;74.33;;;40.60;;
11255;SDS011;5685;52.384;13.420;2023-06-05T10:32:16;74.40;;;40.70;;
11255;SDS011;5685;52.384;13.420;2023-06-05T10:35:27;74.77;;;40.97;;
11255;SDS011;5685;52.384;13.420;2023-06-05T10:38:34;74.97;;;41.00;;
11255;SDS011;5685;52.384;13.420;2023-06-05T10:41:37;75.17;;;41.20;;
11255;SDS011;5685;52.384;13.420;2023-06-05T10:44:40;74.90;;;41.10;;
11255;SDS011;5685;52.384;13.420;2023-06-05T10:47:49;74.53;;;40.87;;
11255;SDS011;5685;52.384;13.420;2023-06-05T10:50:54;74.60;;;40.93;;
11255;SDS011;5685;52.384;13.420;2023-06-05T11:04:13;74.47;;;40.90;;
11255;SDS011;5685;52.384;13.420;2023-06-05T11:07:19;74.30;;;40.83;;
11255;SDS011;5685;52.384;13.420;2023-06-05T11:10:21;74.60;;;40.90;;
11255;SDS011;5685;52.384;13.420;2023-06-05T11:13:24;74.23;;;40.73;;
11255;SDS011;5685;52.384;13.420;2023-06-05T11:16:30;74.37;;;40.77;;
11255;SDS011;5685;52.384;13.420;2023-06-05T11:19:35;74.20;;;40.73;;
11255;SDS011;5685;52.384;13.420;2023-06-05T11:25:57;74.10;;;40.80;;
11255;SDS011;5685;52.384;13.420;2023-06-05T11:29:00;74.57;;;40.97;;
11255;SDS011;5685;52.384;13.420;2023-06-05T11:32:10;74.67;;;41.00;;
11255;SDS011;5685;52.384;13.420;2023-06-05T11:35:13;74.63;;;41.00;;
11255;SDS011;5685;52.384;13.420;2023-06-05T11:38:16;74.53;;;41.00;;
11255;SDS011;5685;52.384;13.420;2023-06-05T11:41:20;74.17;;;40.77;;
11255;SDS011;5685;52.384;13.420;2023-06-05T11:44:31;74.53;;;40.90;;
11255;SDS011;5685;52.384;13.420;2023-06-05T11:47:35;74.50;;;40.87;;
11255;SDS011;5685;52.384;13.420;2023-06-05T11:50:38;74.80;;;41.03;;
11255;SDS011;5685;52.384;13.420;2023-06-05T11:53:44;75.13;;;41.27;;
11255;SDS011;5685;52.384;13.420;2023-06-05T11:56:51;74.60;;;41.10;;
11255;SDS011;5685;52.384;13.420;2023-06-05T11:59:57;74.27;;;40.83;;
11255;SDS011;5685;52.384;13.420;2023-06-05T12:03:00;74.60;;;41.10;;
11255;SDS011;5685;52.384;13.420;2023-06-05T12:06:03;74.53;;;41.10;;
11255;SDS011;5685;52.384;13.420;2023-06-05T12:09:08;73.93;;;40.63;;
11255;SDS011;5685;52.384;13.420;2023-06-05T12:12:13;74.90;;;41.20;;
11255;SDS011;5685;52.384;13.420;2023-06-05T12:15:15;74.50;;;41.00;;
11255;SDS011;5685;52.384;13.420;2023-06-05T12:18:17;74.50;;;41.13;;
11255;SDS011;5685;52.384;13.420;2023-06-05T12:21:20;74.47;;;41.03;;
11255;SDS011;5685;52.384;13.420;2023-06-05T12:24:23;74.63;;;41.10;;
11255;SDS011;5685;52.384;13.420;2023-06-05T12:27:30;74.80;;;41.00;;
11255;SDS011;5685;52.384;13.420;2023-06-05T12:30:39;74.33;;;41.07;;
11255;SDS011;5685;52.384;13.420;2023-06-05T12:33:48;74.83;;;41.27;;
11255;SDS011;5685;52.384;13.420;2023-06-05T12:36:50;74.70;;;41.27;;
11255;SDS011;5685;52.384;13.420;2023-06-05T12:39:52;74.40;;;41.10;;
11255;SDS011;5685;52.384;13.420;2023-06-05T12:42:56;74.47;;;41.20;;
11255;SDS011;5685;52.384;13.420;2023-06-05T12:45:58;75.10;;;41.30;;
11255;SDS011;5685;52.384;13.420;2023-06-05T12:49:01;75.10;;;41.43;;
11255;SDS011;5685;52.384;13.420;2023-06-05T12:52:05;74.87;;;41.47;;
11255;SDS011;5685;52.384;13.420;2023-06-05T12:55:09;74.70;;;41.23;;
11255;SDS011;5685;52.384;13.420;2023-06-05T12:58:13;75.13;;;41.40;;
11255;SDS011;5685;52.384;13.420;2023-06-05T13:01:15;74.70;;;41.20;;
11255;SDS011;5685;52.384;13.420;2023-06-05T13:04:17;75.23;;;41.50;;
11255;SDS011;5685;52.384;13.420;2023-06-05T13:07:19;75.50;;;41.57;;
11255;SDS011;5685;52.384;13.420;2023-06-05T13:10:22;75.57;;;41.60;;
11255;SDS011;5685;52.384;13.420;2023-06-05T13:13:26;75.10;;;41.47;;
11255;SDS011;5685;52.384;13.420;2023-06-05T13:16:29;75.37;;;41.43;;
11255;SDS011;5685;52.384;13.420;2023-06-05T13:19:32;75.10;;;41.47;;
11255;SDS011;5685;52.384;13.420;2023-06-05T13:22:34;75.20;;;41.53;;
11255;SDS011;5685;52.384;13.420;2023-06-05T13:25:37;75.40;;;41.70;;
11255;SDS011;5685;52.384;13.420;2023-06-05T13:28:41;75.27;;;41.60;;
11255;SDS011;5685;52.384;13.420;2023-06-05T13:31:45;75.17;;;41.70;;
11255;SDS011;5685;52.384;13.420;2023-06-05T13:34:47;74.83;;;41.47;;
11255;SDS011;5685;52.384;13.420;2023-06-05T13:37:49;75.13;;;41.57;;
11255;SDS011;5685;52.384;13.420;2023-06-05T13:40:52;74.93;;;41.50;;
11255;SDS011;5685;52.384;13.420;2023-06-05T13:43:56;75.03;;;41.50;;
11255;SDS011;5685;52.384;13.420;2023-06-05T13:46:58;75.27;;;41.50;;
11255;SDS011;5685;52.384;13.420;2023-06-05T13:50:03;74.97;;;41.60;;
11255;SDS011;5685;52.384;13.420;2023-06-05T13:53:05;75.10;;;41.60;;
11255;SDS011;5685;52.384;13.420;2023-06-05T13:56:07;75.17;;;41.63;;
11255;SDS011;5685;52.384;13.420;2023-06-05T13:59:11;75.27;;;41.70;;
11255;SDS011;5685;52.384;13.420;2023-06-05T14:02:13;75.53;;;41.93;;
11255;SDS011;5685;52.384;13.420;2023-06-05T14:05:16;75.70;;;41.73;;
11255;SDS011;5685;52.384;13.420;2023-06-05T14:08:18;74.93;;;41.43;;
11255;SDS011;5685;52.384;13.420;2023-06-05T14:11:20;75.23;;;41.70;;
11255;SDS011;5685;52.384;13.420;2023-06-05T14:14:24;75.00;;;41.50;;
11255;SDS011;5685;52.384;13.420;2023-06-05T14:17:26;75.47;;;41.70;;
11255;SDS011;5685;52.384;13.420;2023-06-05T14:20:29;75.63;;;41.77;;
11255;SDS011;5685;52.384;13.420;2023-06-05T14:23:31;76.00;;;42.00;;
11255;SDS011;5685;52.384;13.420;2023-06-05T14:26:33;75.73;;;41.87;;
11255;SDS011;5685;52.384;13.420;2023-06-05T14:29:37;75.40;;;41.77;;
11255;SDS011;5685;52.384;13.420;2023-06-05T14:32:39;75.47;;;41.70;;
11255;SDS011;5685;52.384;13.420;2023-06-05T14:35:42;75.87;;;41.73;;
11255;SDS011;5685;52.384;13.420;2023-06-05T14:38:44;75.73;;;41.83;;
11255;SDS011;5685;52.384;13.420;2023-06-05T14:41:46;75.00;;;41.63;;
11255;SDS011;5685;52.384;13.420;2023-06-05T14:44:50;75.57;;;41.93;;
11255;SDS011;5685;52.384;13.420;2023-06-05T14:47:52;75.60;;;41.90;;
11255;SDS011;5685;52.384;13.420;2023-06-05T14:50:54;75.33;;;41.80;;
11255;SDS011;5685;52.384;13.420;2023-06-05T14:53:57;75.63;;;41.87;;
11255;SDS011;5685;52.384;13.420;2023-06-05T14:56:59;76.03;;;41.97;;
11255;SDS011;5685;52.384;13.420;2023-06-05T15:00:03;75.37;;;41.80;;
11255;SDS011;5685;52.384;13.420;2023-06-05T15:03:06;75.70;;;41.97;;
11255;SDS011;5685;52.384;13.420;2023-06-05T15:06:08;75.77;;;41.97;;
11255;SDS011;5685;52.384;13.420;2023-06-05T15:09:10;75.60;;;41.83;;
11255;SDS011;5685;52.384;13.420;2023-06-05T15:12:14;75.30;;;41.77;;
11255;SDS011;5685;52.384;13.420;2023-06-05T15:15:18;75.73;;;42.03;;
11255;SDS011;5685;52.384;13.420;2023-06-05T15:18:20;75.27;;;41.67;;
11255;SDS011;5685;52.384;13.420;2023-06-05T15:21:23;76.03;;;42.03;;
11255;SDS011;5685;52.384;13.420;2023-06-05T15:24:25;76.00;;;42.13;;
11255;SDS011;5685;52.384;13.420;2023-06-05T15:27:27;75.87;;;41.97;;
11255;SDS011;5685;52.384;13.420;2023-06-05T15:30:31;75.47;;;41.90;;
11255;SDS011;5685;52.384;13.420;2023-06-05T15:33:33;75.67;;;42.10;;
11255;SDS011;5685;52.384;13.420;2023-06-05T15:36:36;75.60;;;42.00;;
11255;SDS011;5685;52.384;13.420;2023-06-05T15:39:38;75.90;;;42.20;;
11255;SDS011;5685;52.384;13.420;2023-06-05T15:42:40;75.53;;;41.93;;
11255;SDS011;5685;52.384;13.420;2023-06-05T15:45:46;75.37;;;41.90;;
11255;SDS011;5685;52.384;13.420;2023-06-05T15:48:49;75.63;;;42.10;;
11255;SDS011;5685;52.384;13.420;2023-06-05T15:51:52;75.60;;;42.17;;
11255;SDS011;5685;52.384;13.420;2023-06-05T15:54:54;75.50;;;42.07;;
11255;SDS011;5685;52.384;13.420;2023-06-05T15:57:56;76.00;;;42.40;;
11255;SDS011;5685;52.384;13.420;2023-06-05T16:01:00;75.67;;;42.20;;
11255;SDS011;5685;52.384;13.420;2023-06-05T16:04:03;75.90;;;42.43;;
11255;SDS011;5685;52.384;13.420;2023-06-05T16:07:05;75.53;;;42.17;;
11255;SDS011;5685;52.384;13.420;2023-06-05T16:10:08;75.90;;;42.43;;
11255;SDS011;5685;52.384;13.420;2023-06-05T16:13:10;75.70;;;42.37;;
11255;SDS011;5685;52.384;13.420;2023-06-05T16:16:15;75.97;;;42.50;;
11255;SDS011;5685;52.384;13.420;2023-06-05T16:19:18;75.73;;;42.33;;
11255;SDS011;5685;52.384;13.420;2023-06-05T16:22:20;76.00;;;42.50;;
11255;SDS011;5685;52.384;13.420;2023-06-05T16:25:23;75.90;;;42.50;;
11255;SDS011;5685;52.384;13.420;2023-06-05T16:28:25;75.77;;;42.37;;
11255;SDS011;5685;52.384;13.420;2023-06-05T16:31:29;76.10;;;42.47;;
11255;SDS011;5685;52.384;13.420;2023-06-05T16:34:32;76.00;;;42.50;;
11255;SDS011;5685;52.384;13.420;2023-06-05T16:37:34;76.17;;;42.67;;
11255;SDS011;5685;52.384;13.420;2023-06-05T16:40:36;75.43;;;42.30;;
11255;SDS011;5685;52.384;13.420;2023-06-05T16:43:38;75.90;;;42.47;;
11255;SDS011;5685;52.384;13.420;2023-06-05T16:46:42;76.17;;;42.77;;
11255;SDS011;5685;52.384;13.420;2023-06-05T16:49:45;75.90;;;42.47;;
11255;SDS011;5685;52.384;13.420;2023-06-05T16:52:47;76.20;;;42.63;;
11255;SDS011;5685;52.384;13.420;2023-06-05T16:55:49;75.63;;;42.23;;
11255;SDS011;5685;52.384;13.420;2023-06-05T16:58:52;75.87;;;42.27;;
11255;SDS011;5685;52.384;13.420;2023-06-05T17:01:55;75.90;;;42.40;;
11255;SDS011;5685;52.384;13.420;2023-06-05T17:04:58;76.17;;;42.53;;
11255;SDS011;5685;52.384;13.420;2023-06-05T17:08:00;76.10;;;42.50;;
11255;SDS011;5685;52.384;13.420;2023-06-05T17:11:02;76.03;;;42.40;;
11255;SDS011;5685;52.384;13.420;2023-06-05T17:14:05;75.50;;;42.23;;
11255;SDS011;5685;52.384;13.420;2023-06-05T17:17:08;75.90;;;42.40;;
11255;SDS011;5685;52.384;13.420;2023-06-05T17:20:11;76.00;;;42.47;;
11255;SDS011;5685;52.384;13.420;2023-06-05T17:23:13;76.07;;;42.67;;
11255;SDS011;5685;52.384;13.420;2023-06-05T17:26:15;75.67;;;42.40;;
11255;SDS011;5685;52.384;13.420;2023-06-05T17:29:18;75.60;;;42.40;;
11255;SDS011;5685;52.384;13.420;2023-06-05T17:32:21;75.60;;;42.43;;
11255;SDS011;5685;52.384;13.420;2023-06-05T17:35:24;76.33;;;42.63;;
11255;SDS011;5685;52.384;13.420;2023-06-05T17:38:26;76.07;;;42.60;;
11255;SDS011;5685;52.384;13.420;2023-06-05T17:41:28;76.00;;;42.57;;
11255;SDS011;5685;52.384;13.420;2023-06-05T17:44:31;75.93;;;42.50;;
11255;SDS011;5685;52.384;13.420;2023-06-05T17:47:35;75.53;;;42.43;;
11255;SDS011;5685;52.384;13.420;2023-06-05T17:50:37;76.03;;;42.60;;
11255;SDS011;5685;52.384;13.420;2023-06-05T17:53:39;76.23;;;42.70;;
11255;SDS011;5685;52.384;13.420;2023-06-05T17:56:41;75.53;;;42.50;;
11255;SDS011;5685;52.384;13.420;2023-06-05T17:59:44;75.40;;;42.37;;
11255;SDS011;5685;52.384;13.420;2023-06-05T18:02:48;75.57;;;42.53;;
11255;SDS011;5685;52.384;13.420;2023-06-05T18:05:51;76.03;;;42.67;;